Time;durP1;ratioP1;P1;durP2;ratioP2;P2;SDS_P1;SDS_P2;PMS_P1;PMS_P2;Temp;Humidity;BMP_temperature;BMP_pressure;BME280_temperature;BME280_humidity;BME280_pressure;Samples;Min_cycle;Max_cycle;Signal;HPM_P1;HPM_P2
2024/04/29 00:00:54;;;;;;;3.97;3.67;;;9.90;99.90;;;;;;5451654;26;20223;-72
2024/04/29 00:03:20;;;;;;;3.90;3.60;;;9.80;99.90;;;;;;5451783;26;20270;-72
2024/04/29 00:05:46;;;;;;;3.83;3.60;;;9.80;99.90;;;;;;5452411;26;20250;-72
2024/04/29 00:08:11;;;;;;;3.67;3.47;;;9.80;99.90;;;;;;5452395;26;20211;-72
2024/04/29 00:10:37;;;;;;;3.93;3.63;;;9.70;99.90;;;;;;5451897;26;20215;-72
2024/04/29 00:13:02;;;;;;;3.60;3.40;;;9.60;99.90;;;;;;5451460;26;20211;-72
2024/04/29 00:15:28;;;;;;;4.00;3.70;;;9.60;99.90;;;;;;5419749;26;20235;-72
2024/04/29 00:17:54;;;;;;;4.17;3.87;;;9.50;99.90;;;;;;5451820;26;20219;-72
2024/04/29 00:20:19;;;;;;;4.53;4.23;;;9.50;99.90;;;;;;5451212;26;20211;-73
2024/04/29 00:22:45;;;;;;;4.00;3.70;;;9.40;99.90;;;;;;5451329;26;20223;-73
2024/04/29 00:25:10;;;;;;;6.07;3.93;;;9.40;99.90;;;;;;5451534;26;20337;-72
2024/04/29 00:27:36;;;;;;;4.20;3.90;;;9.40;99.90;;;;;;5451329;26;20207;-72
2024/04/29 00:30:02;;;;;;;3.80;3.60;;;9.40;99.90;;;;;;5451536;26;20250;-72
2024/04/29 00:32:27;;;;;;;3.87;3.67;;;9.30;99.90;;;;;;5451182;26;20274;-72
2024/04/29 00:34:53;;;;;;;3.97;3.73;;;9.30;99.90;;;;;;5451237;26;20690;-72
2024/04/29 00:37:18;;;;;;;4.20;3.90;;;9.30;99.90;;;;;;5451181;26;20342;-72
2024/04/29 00:39:44;;;;;;;4.10;3.73;;;9.20;99.90;;;;;;5451078;26;20215;-72
2024/04/29 00:42:09;;;;;;;4.73;4.23;;;9.20;99.90;;;;;;5451337;26;20250;-72
2024/04/29 00:44:35;;;;;;;3.80;3.60;;;9.20;99.90;;;;;;5450719;26;20223;-72
2024/04/29 00:47:01;;;;;;;4.27;3.97;;;9.20;99.90;;;;;;5451329;26;20211;-72
2024/04/29 00:49:29;;;;;;;4.40;4.00;;;9.20;99.90;;;;;;5451178;26;20211;-72
2024/04/29 00:51:56;;;;;;;4.10;3.80;;;9.20;99.90;;;;;;5451225;26;20665;-72
2024/04/29 00:54:21;;;;;;;4.27;4.00;;;9.20;99.90;;;;;;5451293;26;20695;-72
2024/04/29 00:56:47;;;;;;;4.00;3.80;;;9.20;99.90;;;;;;5451530;26;20337;-72
2024/04/29 00:59:14;;;;;;;4.73;3.80;;;9.10;99.90;;;;;;5450809;26;20219;-72
2024/04/29 01:01:39;;;;;;;4.30;4.00;;;9.10;99.90;;;;;;5451019;26;20706;-72
2024/04/29 01:04:06;;;;;;;4.00;3.80;;;9.10;99.90;;;;;;5450967;26;20332;-72
2024/04/29 01:06:32;;;;;;;4.40;4.10;;;9.20;99.90;;;;;;5451014;26;20257;-72
2024/04/29 01:08:58;;;;;;;4.20;3.90;;;9.10;99.90;;;;;;5450937;26;20219;-72
2024/04/29 01:11:24;;;;;;;5.37;4.27;;;9.20;99.90;;;;;;5450745;26;20254;-72
2024/04/29 01:13:50;;;;;;;4.20;3.90;;;9.20;99.90;;;;;;5419322;26;20243;-72
2024/04/29 01:16:16;;;;;;;4.30;4.00;;;9.20;99.90;;;;;;5450770;26;20806;-72
2024/04/29 01:18:42;;;;;;;4.77;4.43;;;9.20;99.90;;;;;;5450520;26;20204;-73
2024/04/29 01:21:08;;;;;;;4.27;3.97;;;9.20;99.90;;;;;;5450830;26;20345;-73
2024/04/29 01:23:34;;;;;;;4.47;4.10;;;9.20;99.90;;;;;;5450430;26;20721;-73
2024/04/29 01:25:59;;;;;;;4.30;3.90;;;9.20;99.90;;;;;;5451075;26;20658;-73
2024/04/29 01:28:25;;;;;;;4.43;4.07;;;9.20;99.90;;;;;;5450367;26;20215;-73
2024/04/29 01:30:50;;;;;;;4.63;4.33;;;9.10;99.90;;;;;;5450801;26;20963;-73
2024/04/29 01:33:16;;;;;;;4.40;4.10;;;9.10;99.90;;;;;;5450249;26;20203;-72
2024/04/29 01:35:45;;;;;;;4.33;4.03;;;9.10;99.90;;;;;;5450842;26;20632;-72
2024/04/29 01:38:11;;;;;;;4.50;4.17;;;9.10;99.90;;;;;;5450662;26;20741;-73
2024/04/29 01:40:37;;;;;;;4.37;3.97;;;9.00;99.90;;;;;;5450294;26;20214;-73
2024/04/29 01:43:03;;;;;;;4.30;4.00;;;9.00;99.90;;;;;;5449093;26;20768;-73
2024/04/29 01:45:28;;;;;;;4.40;4.00;;;9.00;99.90;;;;;;5503794;21;20258;-75
2024/04/29 01:47:54;;;;;;;4.70;4.23;;;9.00;99.90;;;;;;5484314;26;20201;-74
2024/04/29 01:50:19;;;;;;;4.90;4.27;;;9.00;99.90;;;;;;5486389;26;20222;-74
2024/04/29 01:52:45;;;;;;;4.13;3.83;;;9.00;99.90;;;;;;5486321;26;20206;-74
2024/04/29 01:55:11;;;;;;;4.30;4.10;;;9.10;99.90;;;;;;5487149;26;20229;-74
2024/04/29 01:57:36;;;;;;;4.87;4.10;;;9.10;99.90;;;;;;5490496;26;20240;-74
2024/04/29 02:00:04;;;;;;;4.30;4.00;;;9.20;99.90;;;;;;5490190;26;20206;-74
2024/04/29 02:02:30;;;;;;;4.73;4.33;;;9.20;99.90;;;;;;5489853;26;20347;-74
2024/04/29 02:04:55;;;;;;;4.73;4.20;;;9.30;99.90;;;;;;5490335;26;20221;-74
2024/04/29 02:07:21;;;;;;;4.57;4.10;;;9.40;99.90;;;;;;5490163;26;20339;-74
2024/04/29 02:09:46;;;;;;;4.83;3.90;;;9.50;99.90;;;;;;5490315;26;20218;-74
2024/04/29 02:12:12;;;;;;;4.13;3.73;;;9.50;99.90;;;;;;5490379;26;20692;-74
2024/04/29 02:14:38;;;;;;;4.13;3.87;;;9.60;99.90;;;;;;5490284;26;20353;-74
2024/04/29 02:17:03;;;;;;;4.63;3.80;;;9.60;99.90;;;;;;5489638;26;20217;-74
2024/04/29 02:19:29;;;;;;;3.50;3.30;;;9.60;99.90;;;;;;5490022;26;20574;-74
2024/04/29 02:21:54;;;;;;;4.07;3.67;;;9.70;99.90;;;;;;5489757;26;20570;-74
2024/04/29 02:24:20;;;;;;;3.80;3.50;;;9.70;99.90;;;;;;5490155;26;20226;-74
2024/04/29 02:26:46;;;;;;;3.83;3.33;;;9.70;99.90;;;;;;5490301;26;20210;-74
2024/04/29 02:29:11;;;;;;;3.80;3.50;;;9.70;99.90;;;;;;5490180;26;20222;-74
2024/04/29 02:31:37;;;;;;;3.80;3.50;;;9.60;99.90;;;;;;5490065;26;20206;-74
2024/04/29 02:34:02;;;;;;;3.73;3.53;;;9.60;99.90;;;;;;5490017;26;20218;-74
2024/04/29 02:36:28;;;;;;;4.30;3.33;;;9.60;99.90;;;;;;5489332;26;20708;-74
2024/04/29 02:38:54;;;;;;;4.67;3.77;;;9.60;99.90;;;;;;5490318;26;20202;-74
2024/04/29 02:41:19;;;;;;;3.97;3.73;;;9.60;99.90;;;;;;5490069;26;20310;-74
2024/04/29 02:43:45;;;;;;;3.63;3.40;;;9.60;99.90;;;;;;5489332;26;20749;-74
2024/04/29 02:46:10;;;;;;;3.53;3.33;;;9.50;99.90;;;;;;5490006;26;20210;-74
2024/04/29 02:48:36;;;;;;;8.70;3.50;;;9.50;99.90;;;;;;5489670;26;20206;-74
2024/04/29 02:51:01;;;;;;;3.67;3.37;;;9.50;99.90;;;;;;5489704;26;20633;-74
2024/04/29 02:53:27;;;;;;;3.80;3.50;;;9.50;99.90;;;;;;5489466;26;20214;-74
2024/04/29 02:55:52;;;;;;;3.83;3.53;;;9.50;99.90;;;;;;5490291;26;20244;-74
2024/04/29 02:58:18;;;;;;;3.93;3.70;;;9.50;99.90;;;;;;5489900;26;20217;-74
2024/04/29 03:00:44;;;;;;;3.87;3.67;;;9.50;99.90;;;;;;5489157;26;20272;-74
2024/04/29 03:03:09;;;;;;;3.80;3.60;;;9.50;99.90;;;;;;5489619;26;20206;-74
2024/04/29 03:05:35;;;;;;;3.90;3.60;;;9.60;99.90;;;;;;5488254;26;20230;-74
2024/04/29 03:08:01;;;;;;;4.03;3.50;;;9.60;99.90;;;;;;5489597;26;20202;-74
2024/04/29 03:10:27;;;;;;;3.50;3.30;;;9.50;99.90;;;;;;5489355;26;20536;-74
2024/04/29 03:12:53;;;;;;;3.53;3.33;;;9.60;99.90;;;;;;5489708;26;20240;-74
2024/04/29 03:15:18;;;;;;;6.10;3.50;;;9.50;99.90;;;;;;5489790;26;20218;-74
2024/04/29 03:17:47;;;;;;;3.90;3.60;;;9.50;99.90;;;;;;5488889;26;20265;-74
2024/04/29 03:20:12;;;;;;;4.27;3.93;;;9.50;99.90;;;;;;5489700;26;20210;-74
2024/04/29 03:22:38;;;;;;;3.90;3.60;;;9.40;99.90;;;;;;5488880;26;20261;-74
2024/04/29 03:25:04;;;;;;;4.17;3.70;;;9.40;99.90;;;;;;5489496;26;20222;-74
2024/04/29 03:27:29;;;;;;;4.60;4.00;;;9.30;99.90;;;;;;5490035;26;20221;-74
2024/04/29 03:29:55;;;;;;;3.97;3.67;;;9.30;99.90;;;;;;5488912;26;20701;-74
2024/04/29 03:32:20;;;;;;;6.73;3.83;;;9.20;99.90;;;;;;5489194;26;20218;-74
2024/04/29 03:34:46;;;;;;;6.73;4.57;;;9.20;99.90;;;;;;5488945;26;20218;-74
2024/04/29 03:37:12;;;;;;;4.50;4.10;;;9.20;99.90;;;;;;5489447;26;20221;-74
2024/04/29 03:39:38;;;;;;;4.37;3.93;;;9.20;99.90;;;;;;5489262;26;20214;-74
2024/04/29 03:42:03;;;;;;;4.17;3.80;;;9.20;99.90;;;;;;5456926;26;20222;-74
2024/04/29 03:44:29;;;;;;;4.70;4.10;;;9.20;99.90;;;;;;5456443;26;20674;-74
2024/04/29 03:46:55;;;;;;;5.53;3.90;;;9.20;99.90;;;;;;5488676;26;20214;-75
2024/04/29 03:49:20;;;;;;;4.30;3.90;;;9.20;99.90;;;;;;5489005;26;20253;-74
2024/04/29 03:51:47;;;;;;;4.00;3.80;;;9.10;99.90;;;;;;5488881;26;20780;-74
2024/04/29 03:54:13;;;;;;;4.47;3.90;;;9.10;99.90;;;;;;5488865;26;20689;-74
2024/04/29 03:56:39;;;;;;;4.17;3.87;;;9.10;99.90;;;;;;5488549;26;20214;-74
2024/04/29 03:59:05;;;;;;;4.33;3.93;;;9.10;99.90;;;;;;5489011;26;20584;-74
2024/04/29 04:01:32;;;;;;;4.10;3.80;;;9.10;99.90;;;;;;5488209;26;20214;-74
2024/04/29 04:03:57;;;;;;;4.67;4.37;;;9.10;99.90;;;;;;5488959;26;20253;-74
2024/04/29 04:06:23;;;;;;;4.30;3.93;;;9.00;99.90;;;;;;5488807;26;20265;-75
2024/04/29 04:08:48;;;;;;;4.47;4.17;;;9.00;99.90;;;;;;5488474;26;20214;-75
2024/04/29 04:11:14;;;;;;;4.70;4.40;;;9.00;99.90;;;;;;5488371;26;21107;-74
2024/04/29 04:13:40;;;;;;;4.43;3.97;;;9.00;99.90;;;;;;5488116;26;20218;-72
2024/04/29 04:16:06;;;;;;;5.80;3.90;;;9.00;99.90;;;;;;5487887;26;20215;-73
2024/04/29 04:18:32;;;;;;;4.73;4.40;;;8.90;99.90;;;;;;5488458;26;20202;-74
2024/04/29 04:20:58;;;;;;;4.13;3.70;;;8.90;99.90;;;;;;5488609;26;20210;-74
2024/04/29 04:23:24;;;;;;;4.70;4.30;;;8.90;99.90;;;;;;5488079;26;20203;-74
2024/04/29 04:25:49;;;;;;;4.67;4.30;;;8.90;99.90;;;;;;5488144;26;20202;-74
2024/04/29 04:28:15;;;;;;;5.33;4.20;;;8.90;99.90;;;;;;5488451;26;20249;-74
2024/04/29 04:30:41;;;;;;;4.80;4.30;;;8.90;99.90;;;;;;5487433;26;20880;-74
2024/04/29 04:33:06;;;;;;;4.33;3.93;;;8.80;99.90;;;;;;5488170;26;20218;-74
2024/04/29 04:35:32;;;;;;;4.47;4.03;;;8.90;99.90;;;;;;5488005;26;20323;-74
2024/04/29 04:37:57;;;;;;;4.80;4.40;;;8.80;99.90;;;;;;5488448;26;20316;-74
2024/04/29 04:40:23;;;;;;;7.73;4.37;;;8.80;99.90;;;;;;5487831;26;20252;-74
2024/04/29 04:42:49;;;;;;;4.40;3.97;;;8.80;99.90;;;;;;5487907;26;20837;-72
2024/04/29 04:45:14;;;;;;;4.90;4.40;;;8.80;99.90;;;;;;5487752;26;20226;-72
2024/04/29 04:47:40;;;;;;;4.47;4.13;;;8.80;99.90;;;;;;5488276;26;20224;-74
2024/04/29 04:50:06;;;;;;;4.60;4.20;;;8.80;99.90;;;;;;5488797;26;20217;-74
2024/04/29 04:52:32;;;;;;;4.73;4.33;;;8.90;99.90;;;;;;5488349;26;20265;-74
2024/04/29 04:54:57;;;;;;;4.20;3.90;;;9.00;99.90;;;;;;5488119;26;20222;-74
2024/04/29 04:57:23;;;;;;;4.90;4.40;;;9.00;99.90;;;;;;5488061;26;20214;-74
2024/04/29 04:59:48;;;;;;;4.50;4.10;;;9.10;99.90;;;;;;5487532;26;20230;-74
2024/04/29 05:02:14;;;;;;;5.03;4.40;;;9.20;99.90;;;;;;5488016;26;20265;-74
2024/04/29 05:04:40;;;;;;;5.23;4.73;;;9.30;99.90;;;;;;5487295;26;20709;-74
2024/04/29 05:07:05;;;;;;;4.60;4.30;;;9.30;99.90;;;;;;5487888;26;20218;-74
2024/04/29 05:09:31;;;;;;;6.17;4.53;;;9.40;99.90;;;;;;5487378;26;20341;-75
2024/04/29 05:11:57;;;;;;;4.77;4.40;;;9.50;99.90;;;;;;5487502;26;20313;-74
2024/04/29 05:14:22;;;;;;;5.40;4.80;;;9.50;99.90;;;;;;5486833;26;20717;-74
2024/04/29 05:16:48;;;;;;;5.10;4.60;;;9.60;99.90;;;;;;5487325;26;20252;-74
2024/04/29 05:19:14;;;;;;;5.27;4.87;;;9.70;99.90;;;;;;5487227;26;20637;-75
2024/04/29 05:21:39;;;;;;;5.70;5.17;;;9.90;99.90;;;;;;5486968;26;20372;-74
2024/04/29 05:24:05;;;;;;;6.63;4.30;;;10.00;99.90;;;;;;5486960;26;20261;-74
2024/04/29 05:26:30;;;;;;;9.03;4.70;;;10.10;99.90;;;;;;5487284;26;20252;-74
2024/04/29 05:28:56;;;;;;;5.23;4.73;;;10.20;99.90;;;;;;5486044;26;20680;-75
2024/04/29 05:31:21;;;;;;;4.67;4.27;;;10.30;99.90;;;;;;5487008;26;20209;-74
2024/04/29 05:33:47;;;;;;;4.87;4.53;;;10.40;99.90;;;;;;5487052;26;20309;-75
2024/04/29 05:36:13;;;;;;;4.80;4.37;;;10.50;99.90;;;;;;5486962;26;20217;-75
2024/04/29 05:38:38;;;;;;;5.20;4.40;;;10.60;99.90;;;;;;5487231;26;20218;-74
2024/04/29 05:41:04;;;;;;;7.63;4.27;;;10.70;99.90;;;;;;5486981;26;20479;-75
2024/04/29 05:43:29;;;;;;;4.53;4.13;;;10.80;99.90;;;;;;5485863;26;20248;-74
2024/04/29 05:45:55;;;;;;;4.67;4.07;;;10.90;99.90;;;;;;5486708;26;20333;-74
2024/04/29 05:48:20;;;;;;;4.57;4.10;;;11.00;99.90;;;;;;5486719;26;20206;-75
2024/04/29 05:50:46;;;;;;;4.33;3.73;;;11.20;99.90;;;;;;5486657;26;20257;-75
2024/04/29 05:53:12;;;;;;;4.67;4.27;;;11.30;99.90;;;;;;5486777;26;20585;-75
2024/04/29 05:55:37;;;;;;;4.27;3.97;;;11.40;99.90;;;;;;5486617;26;20225;-74
2024/04/29 05:58:03;;;;;;;5.07;3.97;;;11.60;99.90;;;;;;5486751;26;20309;-74
2024/04/29 06:00:28;;;;;;;4.10;3.40;;;11.80;99.90;;;;;;5486282;26;20210;-75
2024/04/29 06:02:58;;;;;;;4.00;3.70;;;12.00;99.90;;;;;;5478738;26;20230;-75
2024/04/29 06:05:24;;;;;;;3.97;3.67;;;12.20;99.90;;;;;;5486852;26;20222;-75
2024/04/29 06:07:49;;;;;;;3.47;3.20;;;12.40;99.90;;;;;;5486269;26;20363;-75
2024/04/29 06:10:15;;;;;;;4.90;3.20;;;12.60;99.90;;;;;;5486323;26;20214;-75
2024/04/29 06:12:40;;;;;;;3.87;3.57;;;13.00;99.90;;;;;;5482474;26;20218;-74
2024/04/29 06:15:06;;;;;;;3.60;3.30;;;13.30;99.90;;;;;;5481194;26;20308;-75
2024/04/29 06:17:32;;;;;;;5.83;3.23;;;13.60;99.90;;;;;;5484760;26;20222;-75
2024/04/29 06:19:58;;;;;;;3.33;3.03;;;14.00;99.90;;;;;;5483915;26;20276;-75
2024/04/29 06:22:24;;;;;;;3.73;3.07;;;14.30;99.90;;;;;;5483968;26;20303;-75
2024/04/29 06:24:50;;;;;;;3.20;3.00;;;14.50;99.90;;;;;;5485605;26;20222;-75
2024/04/29 06:27:15;;;;;;;5.00;3.57;;;14.80;99.90;;;;;;5485983;26;20206;-75
2024/04/29 06:29:41;;;;;;;3.63;3.30;;;15.10;99.90;;;;;;5453581;26;20574;-75
2024/04/29 06:32:06;;;;;;;4.63;3.40;;;15.30;99.90;;;;;;5486001;26;20634;-75
2024/04/29 06:34:32;;;;;;;3.37;3.07;;;15.40;99.90;;;;;;5485968;26;20222;-75
2024/04/29 06:37:01;;;;;;;4.57;3.03;;;15.50;99.90;;;;;;5486152;26;20698;-75
2024/04/29 06:39:27;;;;;;;3.40;3.10;;;15.60;99.90;;;;;;5485770;26;20226;-75
2024/04/29 06:41:52;;;;;;;3.20;2.90;;;15.70;99.90;;;;;;5489009;26;20218;-75
2024/04/29 06:44:18;;;;;;;3.30;3.00;;;15.70;99.90;;;;;;5488774;26;20222;-76
2024/04/29 06:46:44;;;;;;;2.97;2.77;;;15.70;99.90;;;;;;5488594;26;20258;-76
2024/04/29 06:49:10;;;;;;;3.83;2.70;;;15.80;99.90;;;;;;5489484;26;20326;-76
2024/04/29 06:51:36;;;;;;;4.93;3.17;;;15.90;99.90;;;;;;5489409;26;20226;-75
2024/04/29 06:54:01;;;;;;;3.07;2.87;;;16.00;99.90;;;;;;5488889;26;20322;-75
2024/04/29 06:56:27;;;;;;;3.07;2.80;;;16.00;99.90;;;;;;5488565;26;20218;-75
2024/04/29 06:58:53;;;;;;;3.07;2.80;;;16.00;99.90;;;;;;5488471;26;20222;-75
2024/04/29 07:01:19;;;;;;;4.03;3.03;;;16.00;99.90;;;;;;5488907;26;20218;-75
2024/04/29 07:03:45;;;;;;;4.07;2.93;;;16.10;99.90;;;;;;5488469;26;20222;-74
2024/04/29 07:06:11;;;;;;;2.93;2.73;;;16.20;99.90;;;;;;5488871;26;20253;-74
2024/04/29 07:08:36;;;;;;;2.80;2.60;;;16.50;99.90;;;;;;5488603;26;20303;-74
2024/04/29 07:11:06;;;;;;;4.33;2.50;;;16.90;99.90;;;;;;5488637;26;20547;-74
2024/04/29 07:13:32;;;;;;;3.07;2.13;;;17.20;99.90;;;;;;5487213;26;20301;-74
2024/04/29 07:15:58;;;;;;;3.40;2.60;;;17.50;99.90;;;;;;5488443;26;20222;-74
2024/04/29 07:18:23;;;;;;;2.65;2.17;;;17.90;99.90;;;;;;5488718;26;20726;-74
2024/04/29 07:20:49;;;;;;;4.00;2.30;;;18.20;99.90;;;;;;5488288;26;20244;-74
2024/04/29 07:23:14;;;;;;;4.03;2.30;;;18.50;99.90;;;;;;5455993;26;20231;-75
2024/04/29 07:25:40;;;;;;;3.67;2.45;;;18.90;99.90;;;;;;5476807;26;20743;-75
2024/04/29 07:28:07;;;;;;;3.13;2.20;;;19.20;99.90;;;;;;5485373;26;20246;-74
2024/04/29 07:30:32;;;;;;;3.00;2.33;;;19.20;99.90;;;;;;5485075;26;20273;-75
2024/04/29 07:32:58;;;;;;;2.55;2.10;;;19.30;99.90;;;;;;5485326;26;20230;-74
2024/04/29 07:35:24;;;;;;;2.40;2.20;;;19.50;99.90;;;;;;5484760;26;20226;-75
2024/04/29 07:37:49;;;;;;;2.45;2.20;;;19.50;99.90;;;;;;5485459;26;20222;-75
2024/04/29 07:40:15;;;;;;;2.88;2.20;;;19.50;99.90;;;;;;5487566;26;20214;-75
2024/04/29 07:42:40;;;;;;;2.80;2.60;;;19.50;99.90;;;;;;5488109;26;20244;-74
2024/04/29 07:45:06;;;;;;;3.13;2.30;;;19.40;99.90;;;;;;5488567;26;20264;-74
2024/04/29 07:47:32;;;;;;;2.15;2.03;;;19.50;99.90;;;;;;5488813;26;20256;-74
2024/04/29 07:49:57;;;;;;;3.15;2.20;;;19.80;99.90;;;;;;5487819;26;20233;-74
2024/04/29 07:52:23;;;;;;;3.08;2.85;;;20.10;99.90;;;;;;5486853;26;20274;-74
2024/04/29 07:54:49;;;;;;;2.88;2.33;;;20.40;99.90;;;;;;5487094;26;20272;-74
2024/04/29 07:57:14;;;;;;;2.60;2.40;;;20.50;99.90;;;;;;5456525;26;20264;-74
2024/04/29 07:59:40;;;;;;;3.70;2.42;;;20.70;99.90;;;;;;5488098;26;20321;-74
2024/04/29 08:02:05;;;;;;;3.80;2.63;;;20.90;99.90;;;;;;5487713;26;20230;-74
2024/04/29 08:04:31;;;;;;;4.53;2.40;;;20.90;99.90;;;;;;5449706;26;20355;-75
2024/04/29 08:06:57;;;;;;;5.50;2.55;;;20.70;99.90;;;;;;5420138;26;20271;-74
2024/04/29 08:09:22;;;;;;;3.65;2.70;;;20.90;99.90;;;;;;5478616;26;20256;-74
2024/04/29 08:11:48;;;;;;;2.40;2.00;;;21.10;99.90;;;;;;5487940;26;20260;-74
2024/04/29 08:14:13;;;;;;;3.13;2.55;;;20.90;99.90;;;;;;5488296;26;20333;-74
2024/04/29 08:16:39;;;;;;;4.35;2.53;;;20.70;99.90;;;;;;5488198;26;20285;-74
2024/04/29 08:19:04;;;;;;;2.33;2.22;;;20.40;99.90;;;;;;5487743;26;20272;-74
2024/04/29 08:21:30;;;;;;;2.78;2.50;;;20.30;99.90;;;;;;5487486;26;20314;-74
2024/04/29 08:23:56;;;;;;;2.78;2.58;;;20.30;99.90;;;;;;5487208;26;20725;-74
2024/04/29 08:26:21;;;;;;;2.50;2.30;;;20.30;99.90;;;;;;5488300;26;20729;-74
2024/04/29 08:28:47;;;;;;;1.90;1.80;;;20.20;99.90;;;;;;5487933;26;20253;-74
2024/04/29 08:31:12;;;;;;;2.53;2.28;;;20.20;99.90;;;;;;5465084;26;20580;-74
2024/04/29 08:33:38;;;;;;;2.72;2.35;;;20.30;99.90;;;;;;5472683;26;20273;-74
2024/04/29 08:36:07;;;;;;;3.20;2.25;;;20.50;99.90;;;;;;5487768;26;20230;-74
2024/04/29 08:38:32;;;;;;;4.18;2.20;;;20.50;99.90;;;;;;5487580;26;20249;-74
2024/04/29 08:40:58;;;;;;;2.20;2.00;;;20.60;99.90;;;;;;5485006;26;20550;-74
2024/04/29 08:43:24;;;;;;;2.83;2.30;;;20.70;99.90;;;;;;5487174;26;20249;-74
2024/04/29 08:45:51;;;;;;;2.00;1.90;;;20.60;99.90;;;;;;5487352;26;20675;-74
2024/04/29 08:48:18;;;;;;;3.15;2.28;;;20.60;99.90;;;;;;5487237;26;20256;-74
2024/04/29 08:50:43;;;;;;;3.20;2.20;;;20.60;99.90;;;;;;5487176;26;20602;-74
2024/04/29 08:53:09;;;;;;;2.25;2.05;;;20.70;99.90;;;;;;5487404;26;20290;-73
2024/04/29 08:55:35;;;;;;;3.35;2.20;;;20.90;99.90;;;;;;5487589;26;20222;-74
2024/04/29 08:58:01;;;;;;;2.40;2.20;;;20.90;99.90;;;;;;5487078;26;20740;-73
2024/04/29 09:00:27;;;;;;;2.13;1.92;;;20.90;99.90;;;;;;5487077;26;20614;-73
2024/04/29 09:02:54;;;;;;;3.80;2.05;;;21.00;99.90;;;;;;5485443;26;20259;-74
2024/04/29 09:05:20;;;;;;;2.78;1.90;;;21.20;99.90;;;;;;5486673;26;20293;-74
2024/04/29 09:07:46;;;;;;;3.35;1.98;;;21.50;99.90;;;;;;5487079;26;20664;-74
2024/04/29 09:10:12;;;;;;;4.10;2.30;;;21.50;99.90;;;;;;5486819;26;20270;-73
2024/04/29 09:12:38;;;;;;;3.03;2.08;;;21.60;99.90;;;;;;5487193;26;20270;-74
2024/04/29 09:15:09;;;;;;;3.10;2.10;;;21.60;99.90;;;;;;5486632;26;20222;-74
2024/04/29 09:17:42;;;;;;;2.05;1.90;;;21.50;99.90;;;;;;5487250;26;20280;-74
2024/04/29 09:20:09;;;;;;;3.13;1.80;;;21.50;99.90;;;;;;5457601;26;20225;-74
2024/04/29 09:22:35;;;;;;;3.83;2.03;;;21.60;99.90;;;;;;5486425;26;20649;-74
2024/04/29 09:25:01;;;;;;;3.30;2.08;;;21.70;99.90;;;;;;5486493;26;20230;-74
2024/04/29 09:27:27;;;;;;;2.28;2.00;;;21.60;99.90;;;;;;5486711;26;20609;-75
2024/04/29 09:29:52;;;;;;;2.05;1.85;;;21.70;99.90;;;;;;5486391;26;20257;-74
2024/04/29 09:32:22;;;;;;;3.08;1.85;;;21.90;99.90;;;;;;5486364;26;20234;-75
2024/04/29 09:34:49;;;;;;;2.90;1.77;;;22.10;99.90;;;;;;5486138;26;20268;-75
2024/04/29 09:37:16;;;;;;;1.85;1.67;;;22.10;95.40;;;;;;5486762;26;20317;-74
2024/04/29 09:39:42;;;;;;;2.00;1.90;;;22.00;94.60;;;;;;5487007;26;20768;-75
2024/04/29 09:42:16;;;;;;;4.60;2.13;;;21.90;95.10;;;;;;5486806;26;20318;-75
2024/04/29 09:44:54;;;;;;;2.10;1.80;;;22.00;96.70;;;;;;5486512;26;20238;-74
2024/04/29 09:47:23;;;;;;;1.98;1.70;;;22.00;93.20;;;;;;5486806;26;20229;-75
2024/04/29 09:49:52;;;;;;;2.78;1.83;;;21.90;91.00;;;;;;5486615;26;20748;-75
2024/04/29 09:52:18;;;;;;;2.17;1.98;;;21.90;93.10;;;;;;5486721;26;20286;-74
2024/04/29 09:54:46;;;;;;;2.20;1.70;;;22.10;92.00;;;;;;5486649;26;20286;-74
2024/04/29 09:57:12;;;;;;;4.18;1.88;;;22.10;91.20;;;;;;5486894;26;20218;-74
2024/04/29 09:59:40;;;;;;;3.67;1.70;;;22.20;93.20;;;;;;5486552;26;20569;-75
2024/04/29 10:02:07;;;;;;;2.22;2.03;;;22.30;91.30;;;;;;5486516;26;20214;-73
2024/04/29 10:04:34;;;;;;;2.75;1.98;;;22.50;92.50;;;;;;5478876;26;20234;-75
2024/04/29 10:07:06;;;;;;;2.50;1.80;;;22.40;87.30;;;;;;5485964;26;20218;-74
2024/04/29 10:09:33;;;;;;;4.88;1.90;;;22.40;87.50;;;;;;5486431;26;20229;-74
2024/04/29 10:11:58;;;;;;;3.35;1.90;;;22.40;90.10;;;;;;5486348;26;20757;-75
2024/04/29 10:14:24;;;;;;;2.65;2.20;;;22.40;88.10;;;;;;5486838;26;20257;-75
2024/04/29 10:16:49;;;;;;;2.13;1.95;;;22.40;90.80;;;;;;5490177;26;20210;-74
2024/04/29 10:19:22;;;;;;;2.38;1.90;;;22.60;90.10;;;;;;5490039;26;20687;-73
2024/04/29 10:21:47;;;;;;;2.22;1.95;;;22.70;85.90;;;;;;5490164;26;20206;-74
2024/04/29 10:24:14;;;;;;;2.85;1.90;;;22.60;85.80;;;;;;5490355;26;20755;-74
2024/04/29 10:26:40;;;;;;;2.78;1.80;;;22.20;87.20;;;;;;5489977;26;20603;-74
2024/04/29 10:29:08;;;;;;;2.55;2.00;;;22.20;88.00;;;;;;5486517;26;20264;-74
2024/04/29 10:31:46;;;;;;;3.38;2.00;;;22.10;85.90;;;;;;5489253;26;20210;-74
2024/04/29 10:34:11;;;;;;;2.20;2.00;;;22.10;84.80;;;;;;5489928;26;20221;-74
2024/04/29 10:36:37;;;;;;;4.63;2.33;;;22.20;86.30;;;;;;5489284;26;20252;-74
2024/04/29 10:39:03;;;;;;;2.65;1.83;;;22.40;83.50;;;;;;5489514;26;20210;-74
2024/04/29 10:41:34;;;;;;;3.22;2.22;;;22.50;82.50;;;;;;5489266;26;20302;-74
2024/04/29 10:43:59;;;;;;;2.53;2.33;;;22.50;83.40;;;;;;5489701;26;20335;-74
2024/04/29 10:46:26;;;;;;;2.90;1.90;;;22.70;84.80;;;;;;5489577;26;20717;-74
2024/04/29 10:48:52;;;;;;;4.88;2.10;;;22.90;86.00;;;;;;5489488;26;20701;-74
2024/04/29 10:51:18;;;;;;;2.75;2.10;;;23.10;82.10;;;;;;5489353;26;20290;-74
2024/04/29 10:53:44;;;;;;;3.58;2.25;;;23.30;80.30;;;;;;5489376;26;20230;-74
2024/04/29 10:56:09;;;;;;;3.25;2.20;;;23.30;81.80;;;;;;5489318;26;20261;-74
2024/04/29 10:58:36;;;;;;;2.05;1.85;;;23.30;78.80;;;;;;5489943;26;20318;-74
2024/04/29 11:01:01;;;;;;;2.00;1.73;;;23.30;73.60;;;;;;5489050;26;20226;-74
2024/04/29 11:03:28;;;;;;;2.05;1.90;;;23.30;78.30;;;;;;5489183;26;20202;-74
2024/04/29 11:05:54;;;;;;;2.05;1.77;;;23.40;75.50;;;;;;5489321;26;20206;-74
2024/04/29 11:08:22;;;;;;;2.95;1.70;;;23.40;78.10;;;;;;5489405;26;20237;-74
2024/04/29 11:10:48;;;;;;;2.20;2.00;;;23.50;75.20;;;;;;5488787;26;20202;-74
2024/04/29 11:13:14;;;;;;;1.80;1.70;;;23.50;77.10;;;;;;5489295;26;20653;-74
2024/04/29 11:15:40;;;;;;;2.45;2.20;;;23.70;73.10;;;;;;5489708;26;20307;-74
2024/04/29 11:18:06;;;;;;;1.73;1.55;;;23.80;74.20;;;;;;5489482;26;20735;-74
2024/04/29 11:20:31;;;;;;;2.03;1.80;;;24.00;75.50;;;;;;5489323;26;20210;-74
2024/04/29 11:22:57;;;;;;;1.73;1.50;;;24.40;75.00;;;;;;5488990;26;20226;-73
2024/04/29 11:25:23;;;;;;;1.92;1.67;;;24.70;71.60;;;;;;5486152;26;20809;-74
2024/04/29 11:27:48;;;;;;;1.65;1.55;;;24.80;72.10;;;;;;5487879;26;20233;-74
2024/04/29 11:30:14;;;;;;;2.67;1.90;;;24.90;73.90;;;;;;5457155;26;20218;-74
2024/04/29 11:32:40;;;;;;;1.80;1.70;;;24.80;69.80;;;;;;5488846;26;20203;-74
2024/04/29 11:35:06;;;;;;;3.28;2.20;;;24.60;67.30;;;;;;5488488;26;20258;-74
2024/04/29 11:37:31;;;;;;;1.85;1.70;;;24.40;68.10;;;;;;5488561;26;20218;-74
2024/04/29 11:39:57;;;;;;;2.22;1.55;;;24.40;69.60;;;;;;5488540;26;20775;-74
2024/04/29 11:42:23;;;;;;;1.80;1.67;;;24.30;66.00;;;;;;5488741;26;20210;-74
2024/04/29 11:44:48;;;;;;;2.95;1.75;;;24.40;68.80;;;;;;5487874;26;20322;-74
2024/04/29 11:47:14;;;;;;;2.17;1.60;;;24.30;69.10;;;;;;5488725;26;20693;-74
2024/04/29 11:49:40;;;;;;;2.15;1.67;;;24.30;67.40;;;;;;5488517;26;20210;-74
2024/04/29 11:52:06;;;;;;;2.13;1.83;;;24.50;70.90;;;;;;5487955;26;20293;-74
2024/04/29 11:54:37;;;;;;;2.35;1.67;;;24.50;64.40;;;;;;5488376;26;20257;-74
2024/04/29 11:57:04;;;;;;;2.00;1.52;;;24.40;65.90;;;;;;5489000;26;20253;-73
2024/04/29 11:59:29;;;;;;;1.70;1.58;;;24.50;67.10;;;;;;5488655;26;20210;-74
2024/04/29 12:01:55;;;;;;;1.70;1.60;;;24.60;65.80;;;;;;5488313;26;20240;-74
2024/04/29 12:04:22;;;;;;;2.85;1.50;;;24.80;70.30;;;;;;5488039;26;20276;-74
2024/04/29 12:06:47;;;;;;;1.63;1.52;;;25.10;73.90;;;;;;5487948;26;20218;-74
2024/04/29 12:09:19;;;;;;;2.22;1.60;;;25.40;63.10;;;;;;5487758;26;20315;-74
2024/04/29 12:11:45;;;;;;;1.60;1.50;;;25.40;61.50;;;;;;5488415;26;20222;-74
2024/04/29 12:14:10;;;;;;;2.00;1.85;;;25.40;62.20;;;;;;5488244;26;20322;-73
2024/04/29 12:16:36;;;;;;;4.60;1.63;;;25.40;60.90;;;;;;5488215;26;20206;-74
2024/04/29 12:19:01;;;;;;;3.55;1.65;;;25.40;63.70;;;;;;5488033;26;20229;-75
2024/04/29 12:21:27;;;;;;;2.45;1.50;;;25.60;59.80;;;;;;5488584;26;20257;-74
2024/04/29 12:23:53;;;;;;;2.15;1.40;;;25.60;58.30;;;;;;5488588;26;20268;-74
2024/04/29 12:26:18;;;;;;;4.97;1.77;;;25.30;57.10;;;;;;5489077;26;20208;-74
2024/04/29 12:28:44;;;;;;;3.85;1.70;;;25.10;58.30;;;;;;5457023;26;20222;-74
2024/04/29 12:31:09;;;;;;;1.92;1.77;;;24.80;59.60;;;;;;5488007;26;20251;-74
2024/04/29 12:33:35;;;;;;;4.35;1.88;;;24.20;57.20;;;;;;5488425;26;20226;-74
2024/04/29 12:36:01;;;;;;;1.95;1.45;;;23.90;58.00;;;;;;5488816;26;20339;-74
2024/04/29 12:38:26;;;;;;;1.88;1.77;;;23.80;57.70;;;;;;5488786;26;20214;-74
2024/04/29 12:40:52;;;;;;;1.73;1.63;;;23.90;61.40;;;;;;5488433;26;20218;-74
2024/04/29 12:43:18;;;;;;;2.30;1.80;;;24.00;62.10;;;;;;5488312;26;20652;-73